sensor_id;sensor_type;location;lat;lon;timestamp;pressure;altitude;pressure_sealevel;temperature
72054;BMP280;59918;51.280;7.950;2022-09-27T00:02:04;95880.81;;;9.80
72054;BMP280;59918;51.280;7.950;2022-09-27T00:04:29;95890.31;;;9.80
72054;BMP280;59918;51.280;7.950;2022-09-27T00:06:54;95890.31;;;9.80
72054;BMP280;59918;51.280;7.950;2022-09-27T00:09:20;95893.16;;;9.83
72054;BMP280;59918;51.280;7.950;2022-09-27T00:11:45;95896.72;;;9.82
72054;BMP280;59918;51.280;7.950;2022-09-27T00:14:15;95893.69;;;9.85
72054;BMP280;59918;51.280;7.950;2022-09-27T00:16:42;95887.00;;;9.84
72054;BMP280;59918;51.280;7.950;2022-09-27T00:19:14;95892.66;;;9.86
72054;BMP280;59918;51.280;7.950;2022-09-27T00:21:40;95902.94;;;9.86
72054;BMP280;59918;51.280;7.950;2022-09-27T00:24:05;95901.41;;;9.85
72054;BMP280;59918;51.280;7.950;2022-09-27T00:26:31;95901.94;;;9.87
72054;BMP280;59918;51.280;7.950;2022-09-27T00:28:56;95900.88;;;9.88
72054;BMP280;59918;51.280;7.950;2022-09-27T00:31:27;95906.03;;;9.88
72054;BMP280;59918;51.280;7.950;2022-09-27T00:33:53;95902.94;;;9.86
72054;BMP280;59918;51.280;7.950;2022-09-27T00:36:19;95913.19;;;9.86
72054;BMP280;59918;51.280;7.950;2022-09-27T00:38:46;95909.34;;;9.88
72054;BMP280;59918;51.280;7.950;2022-09-27T00:41:14;95911.69;;;9.90
72054;BMP280;59918;51.280;7.950;2022-09-27T00:43:48;95917.63;;;9.90
72054;BMP280;59918;51.280;7.950;2022-09-27T00:46:20;95909.63;;;9.87
72054;BMP280;59918;51.280;7.950;2022-09-27T00:48:47;95914.22;;;9.85
72054;BMP280;59918;51.280;7.950;2022-09-27T00:51:14;95920.91;;;9.86
72054;BMP280;59918;51.280;7.950;2022-09-27T00:53:50;95928.13;;;9.89
72054;BMP280;59918;51.280;7.950;2022-09-27T00:56:24;95920.41;;;9.89
72054;BMP280;59918;51.280;7.950;2022-09-27T00:58:58;95919.38;;;9.90
72054;BMP280;59918;51.280;7.950;2022-09-27T01:01:25;95930.69;;;9.89
72054;BMP280;59918;51.280;7.950;2022-09-27T01:06:24;95920.97;;;9.91
72054;BMP280;59918;51.280;7.950;2022-09-27T01:08:49;95924.09;;;9.93
72054;BMP280;59918;51.280;7.950;2022-09-27T01:14:38;95927.66;;;9.92
72054;BMP280;59918;51.280;7.950;2022-09-27T01:25:44;95946.53;;;9.81
72054;BMP280;59918;51.280;7.950;2022-09-27T01:42:43;95962.78;;;9.65
72054;BMP280;59918;51.280;7.950;2022-09-27T01:45:30;95963.56;;;9.66
72054;BMP280;59918;51.280;7.950;2022-09-27T01:48:01;95960.69;;;9.62
72054;BMP280;59918;51.280;7.950;2022-09-27T01:50:34;95961.72;;;9.61
72054;BMP280;59918;51.280;7.950;2022-09-27T01:53:07;95959.84;;;9.57
72054;BMP280;59918;51.280;7.950;2022-09-27T01:55:36;95964.72;;;9.53
72054;BMP280;59918;51.280;7.950;2022-09-27T01:58:09;95967.31;;;9.58
72054;BMP280;59918;51.280;7.950;2022-09-27T02:00:37;95965.28;;;9.60
72054;BMP280;59918;51.280;7.950;2022-09-27T02:03:11;95965.28;;;9.60
72054;BMP280;59918;51.280;7.950;2022-09-27T02:05:43;95962.19;;;9.58
72054;BMP280;59918;51.280;7.950;2022-09-27T02:08:19;95968.09;;;9.59
72054;BMP280;59918;51.280;7.950;2022-09-27T02:10:46;95969.13;;;9.58
72054;BMP280;59918;51.280;7.950;2022-09-27T02:13:32;95955.69;;;9.51
72054;BMP280;59918;51.280;7.950;2022-09-27T02:16:33;95964.47;;;9.55
72054;BMP280;59918;51.280;7.950;2022-09-27T02:19:20;95974.03;;;9.59
72054;BMP280;59918;51.280;7.950;2022-09-27T02:24:55;95977.59;;;9.58
72054;BMP280;59918;51.280;7.950;2022-09-27T02:27:24;95972.44;;;9.58
72054;BMP280;59918;51.280;7.950;2022-09-27T02:30:01;95972.22;;;9.60
72054;BMP280;59918;51.280;7.950;2022-09-27T02:32:28;95975.84;;;9.64
72054;BMP280;59918;51.280;7.950;2022-09-27T02:34:54;95976.31;;;9.61
72054;BMP280;59918;51.280;7.950;2022-09-27T02:37:21;95976.09;;;9.62
72054;BMP280;59918;51.280;7.950;2022-09-27T02:39:48;95982.00;;;9.63
72054;BMP280;59918;51.280;7.950;2022-09-27T02:42:13;95978.19;;;9.65
72054;BMP280;59918;51.280;7.950;2022-09-27T02:44:39;95982.78;;;9.63
72054;BMP280;59918;51.280;7.950;2022-09-27T03:00:05;95985.81;;;9.60
72054;BMP280;59918;51.280;7.950;2022-09-27T03:03:06;95986.84;;;9.59
72054;BMP280;59918;51.280;7.950;2022-09-27T03:05:42;95986.31;;;9.57
72054;BMP280;59918;51.280;7.950;2022-09-27T03:08:10;95979.16;;;9.59
72054;BMP280;59918;51.280;7.950;2022-09-27T03:10:36;95987.38;;;9.61
72054;BMP280;59918;51.280;7.950;2022-09-27T03:13:02;95986.88;;;9.64
72054;BMP280;59918;51.280;7.950;2022-09-27T03:15:27;95995.84;;;9.62
72054;BMP280;59918;51.280;7.950;2022-09-27T03:17:52;95991.97;;;9.59
72054;BMP280;59918;51.280;7.950;2022-09-27T03:20:17;95999.38;;;9.56
72054;BMP280;59918;51.280;7.950;2022-09-27T03:22:43;95995.00;;;9.56
72054;BMP280;59918;51.280;7.950;2022-09-27T03:25:08;95997.09;;;9.59
72054;BMP280;59918;51.280;7.950;2022-09-27T03:27:33;96004.81;;;9.59
72054;BMP280;59918;51.280;7.950;2022-09-27T03:29:59;95998.66;;;9.60
72054;BMP280;59918;51.280;7.950;2022-09-27T03:32:25;96002.28;;;9.64
72054;BMP280;59918;51.280;7.950;2022-09-27T03:34:50;96001.50;;;9.64
72054;BMP280;59918;51.280;7.950;2022-09-27T03:37:16;95999.19;;;9.62
72054;BMP280;59918;51.280;7.950;2022-09-27T03:39:41;95999.19;;;9.62
72054;BMP280;59918;51.280;7.950;2022-09-27T03:42:06;96003.53;;;9.62
72054;BMP280;59918;51.280;7.950;2022-09-27T03:44:31;95999.19;;;9.62
72054;BMP280;59918;51.280;7.950;2022-09-27T03:46:57;96007.91;;;9.61
72054;BMP280;59918;51.280;7.950;2022-09-27T03:49:23;96006.09;;;9.62
72054;BMP280;59918;51.280;7.950;2022-09-27T03:51:49;96013.03;;;9.61
72054;BMP280;59918;51.280;7.950;2022-09-27T03:54:14;96015.06;;;9.59
72054;BMP280;59918;51.280;7.950;2022-09-27T03:56:39;96014.75;;;9.56
72054;BMP280;59918;51.280;7.950;2022-09-27T03:59:05;96012.13;;;9.51
72054;BMP280;59918;51.280;7.950;2022-09-27T04:01:30;96015.75;;;9.55
72054;BMP280;59918;51.280;7.950;2022-09-27T04:03:55;96020.34;;;9.53
72054;BMP280;59918;51.280;7.950;2022-09-27T04:06:20;96022.94;;;9.53
72054;BMP280;59918;51.280;7.950;2022-09-27T04:08:48;96029.84;;;9.52
72054;BMP280;59918;51.280;7.950;2022-09-27T04:11:13;96024.19;;;9.50
72054;BMP280;59918;51.280;7.950;2022-09-27T04:13:38;96034.69;;;9.49
72054;BMP280;59918;51.280;7.950;2022-09-27T04:16:04;96023.41;;;9.50
72054;BMP280;59918;51.280;7.950;2022-09-27T04:18:29;96031.66;;;9.52
72054;BMP280;59918;51.280;7.950;2022-09-27T04:20:55;96025.97;;;9.50
72054;BMP280;59918;51.280;7.950;2022-09-27T04:23:20;96034.44;;;9.50
72054;BMP280;59918;51.280;7.950;2022-09-27T04:25:46;96040.59;;;9.49
72054;BMP280;59918;51.280;7.950;2022-09-27T04:28:11;96035.47;;;9.49
72054;BMP280;59918;51.280;7.950;2022-09-27T04:30:36;96035.94;;;9.46
72054;BMP280;59918;51.280;7.950;2022-09-27T04:33:02;96043.16;;;9.49
72054;BMP280;59918;51.280;7.950;2022-09-27T04:35:29;96045.72;;;9.49
72054;BMP280;59918;51.280;7.950;2022-09-27T04:37:57;96044.94;;;9.49
72054;BMP280;59918;51.280;7.950;2022-09-27T04:40:22;96049.00;;;9.45
72054;BMP280;59918;51.280;7.950;2022-09-27T04:42:48;96054.63;;;9.42
72054;BMP280;59918;51.280;7.950;2022-09-27T04:45:14;96050.25;;;9.43
72054;BMP280;59918;51.280;7.950;2022-09-27T04:47:43;96048.00;;;9.46
72054;BMP280;59918;51.280;7.950;2022-09-27T04:50:09;96055.69;;;9.46
72054;BMP280;59918;51.280;7.950;2022-09-27T04:52:34;96058.03;;;9.47
72054;BMP280;59918;51.280;7.950;2022-09-27T04:55:02;96061.34;;;9.48
72054;BMP280;59918;51.280;7.950;2022-09-27T04:57:27;96072.16;;;9.50
72054;BMP280;59918;51.280;7.950;2022-09-27T04:59:52;96071.13;;;9.51
72054;BMP280;59918;51.280;7.950;2022-09-27T05:02:18;96070.91;;;9.52
72054;BMP280;59918;51.280;7.950;2022-09-27T05:04:43;96081.38;;;9.51
72054;BMP280;59918;51.280;7.950;2022-09-27T05:07:08;96082.13;;;9.46
72054;BMP280;59918;51.280;7.950;2022-09-27T05:09:34;96081.34;;;9.46
72054;BMP280;59918;51.280;7.950;2022-09-27T05:11:59;96089.56;;;9.48
72054;BMP280;59918;51.280;7.950;2022-09-27T05:14:24;96090.34;;;9.48
72054;BMP280;59918;51.280;7.950;2022-09-27T05:16:50;96085.44;;;9.47
72054;BMP280;59918;51.280;7.950;2022-09-27T05:19:15;96100.59;;;9.48
72054;BMP280;59918;51.280;7.950;2022-09-27T05:21:40;96101.16;;;9.50
72054;BMP280;59918;51.280;7.950;2022-09-27T05:24:05;96098.59;;;9.50
72054;BMP280;59918;51.280;7.950;2022-09-27T05:26:31;96100.38;;;9.50
72054;BMP280;59918;51.280;7.950;2022-09-27T05:28:56;96104.44;;;9.46
72054;BMP280;59918;51.280;7.950;2022-09-27T05:31:21;96105.13;;;9.42
72054;BMP280;59918;51.280;7.950;2022-09-27T05:33:46;96102.28;;;9.38
72054;BMP280;59918;51.280;7.950;2022-09-27T05:36:12;96104.56;;;9.40
72054;BMP280;59918;51.280;7.950;2022-09-27T05:38:37;96107.63;;;9.37
72054;BMP280;59918;51.280;7.950;2022-09-27T05:41:02;96106.53;;;9.33
72054;BMP280;59918;51.280;7.950;2022-09-27T05:43:30;96113.53;;;9.37
72054;BMP280;59918;51.280;7.950;2022-09-27T05:45:57;96110.25;;;9.42
72054;BMP280;59918;51.280;7.950;2022-09-27T05:48:23;96109.25;;;9.43
72054;BMP280;59918;51.280;7.950;2022-09-27T05:50:48;96111.50;;;9.39
72054;BMP280;59918;51.280;7.950;2022-09-27T05:53:13;96113.75;;;9.36
72054;BMP280;59918;51.280;7.950;2022-09-27T05:55:38;96122.00;;;9.38
72054;BMP280;59918;51.280;7.950;2022-09-27T05:58:06;96121.00;;;9.39
72054;BMP280;59918;51.280;7.950;2022-09-27T06:00:32;96122.53;;;9.40
72054;BMP280;59918;51.280;7.950;2022-09-27T06:03:00;96128.69;;;9.39
72054;BMP280;59918;51.280;7.950;2022-09-27T06:05:29;96131.03;;;9.40
72054;BMP280;59918;51.280;7.950;2022-09-27T06:08:03;96122.53;;;9.40
72054;BMP280;59918;51.280;7.950;2022-09-27T06:10:31;96137.16;;;9.39
72054;BMP280;59918;51.280;7.950;2022-09-27T06:13:06;96136.94;;;9.41
72054;BMP280;59918;51.280;7.950;2022-09-27T06:15:33;96131.84;;;9.45
72054;BMP280;59918;51.280;7.950;2022-09-27T06:18:04;96138.84;;;9.50
72054;BMP280;59918;51.280;7.950;2022-09-27T06:20:29;96138.84;;;9.50
72054;BMP280;59918;51.280;7.950;2022-09-27T06:23:05;96137.28;;;9.49
72054;BMP280;59918;51.280;7.950;2022-09-27T06:25:31;96141.19;;;9.51
72054;BMP280;59918;51.280;7.950;2022-09-27T06:27:56;96142.88;;;9.62
72054;BMP280;59918;51.280;7.950;2022-09-27T06:30:21;96144.72;;;9.67
72054;BMP280;59918;51.280;7.950;2022-09-27T06:32:47;96146.06;;;9.69
72054;BMP280;59918;51.280;7.950;2022-09-27T06:35:12;96145.22;;;9.64
72054;BMP280;59918;51.280;7.950;2022-09-27T06:37:37;96145.44;;;9.62
72054;BMP280;59918;51.280;7.950;2022-09-27T06:40:03;96151.25;;;9.74
72054;BMP280;59918;51.280;7.950;2022-09-27T06:42:31;96150.41;;;9.90
72054;BMP280;59918;51.280;7.950;2022-09-27T06:44:56;96150.75;;;9.93
72054;BMP280;59918;51.280;7.950;2022-09-27T06:47:22;96160.50;;;9.91
72054;BMP280;59918;51.280;7.950;2022-09-27T06:49:47;96162.28;;;9.91
72054;BMP280;59918;51.280;7.950;2022-09-27T06:52:12;96170.81;;;9.96
72054;BMP280;59918;51.280;7.950;2022-09-27T06:54:37;96169.19;;;10.12
72054;BMP280;59918;51.280;7.950;2022-09-27T06:57:03;96171.88;;;10.21
72054;BMP280;59918;51.280;7.950;2022-09-27T06:59:28;96163.41;;;10.21
72054;BMP280;59918;51.280;7.950;2022-09-27T07:01:53;96166.31;;;10.08
72054;BMP280;59918;51.280;7.950;2022-09-27T07:04:21;96169.63;;;10.04
72054;BMP280;59918;51.280;7.950;2022-09-27T07:06:46;96172.19;;;10.04
72054;BMP280;59918;51.280;7.950;2022-09-27T07:09:11;96178.09;;;10.04
72054;BMP280;59918;51.280;7.950;2022-09-27T07:11:36;96183.41;;;9.98
72054;BMP280;59918;51.280;7.950;2022-09-27T07:14:02;96186.75;;;9.98
72054;BMP280;59918;51.280;7.950;2022-09-27T07:16:27;96188.22;;;10.11
72054;BMP280;59918;51.280;7.950;2022-09-27T07:18:53;96194.91;;;10.33
72054;BMP280;59918;51.280;7.950;2022-09-27T07:21:18;96203.97;;;10.40
72054;BMP280;59918;51.280;7.950;2022-09-27T07:23:43;96198.84;;;10.40
72054;BMP280;59918;51.280;7.950;2022-09-27T07:26:08;96207.84;;;10.43
72054;BMP280;59918;51.280;7.950;2022-09-27T07:28:34;96207.38;;;10.46
72054;BMP280;59918;51.280;7.950;2022-09-27T07:30:59;96204.97;;;10.39
72054;BMP280;59918;51.280;7.950;2022-09-27T07:33:25;96204.22;;;10.39
72054;BMP280;59918;51.280;7.950;2022-09-27T07:35:51;96207.09;;;10.42
72054;BMP280;59918;51.280;7.950;2022-09-27T07:38:19;96199.41;;;10.47
72054;BMP280;59918;51.280;7.950;2022-09-27T07:40:44;96199.81;;;10.60
72054;BMP280;59918;51.280;7.950;2022-09-27T07:43:10;96210.63;;;10.84
72054;BMP280;59918;51.280;7.950;2022-09-27T07:45:35;96201.28;;;11.04
72054;BMP280;59918;51.280;7.950;2022-09-27T07:48:04;96221.47;;;11.17
72054;BMP280;59918;51.280;7.950;2022-09-27T07:50:32;96216.25;;;11.07
72054;BMP280;59918;51.280;7.950;2022-09-27T07:53:00;96216.63;;;10.94
72054;BMP280;59918;51.280;7.950;2022-09-27T07:55:25;96222.19;;;10.86
72054;BMP280;59918;51.280;7.950;2022-09-27T07:57:50;96222.84;;;10.72
72054;BMP280;59918;51.280;7.950;2022-09-27T08:00:17;96232.78;;;10.63
72054;BMP280;59918;51.280;7.950;2022-09-27T08:02:43;96242.94;;;10.54
72054;BMP280;59918;51.280;7.950;2022-09-27T08:05:09;96248.19;;;10.42
72054;BMP280;59918;51.280;7.950;2022-09-27T08:07:38;96250.09;;;10.30
72054;BMP280;59918;51.280;7.950;2022-09-27T08:10:07;96252.22;;;10.17
72054;BMP280;59918;51.280;7.950;2022-09-27T08:12:32;96258.84;;;10.13
72054;BMP280;59918;51.280;7.950;2022-09-27T08:14:57;96263.22;;;10.13
72054;BMP280;59918;51.280;7.950;2022-09-27T08:17:23;96277.56;;;10.09
72054;BMP280;59918;51.280;7.950;2022-09-27T08:19:50;96268.81;;;10.10
72054;BMP280;59918;51.280;7.950;2022-09-27T08:22:18;96266.69;;;10.23
72054;BMP280;59918;51.280;7.950;2022-09-27T08:24:47;96269.34;;;10.28
72054;BMP280;59918;51.280;7.950;2022-09-27T08:27:14;96273.13;;;10.25
72054;BMP280;59918;51.280;7.950;2022-09-27T08:29:41;96271.97;;;10.33
72054;BMP280;59918;51.280;7.950;2022-09-27T08:32:08;96260.84;;;10.49
72054;BMP280;59918;51.280;7.950;2022-09-27T08:34:38;96267.50;;;10.66
72054;BMP280;59918;51.280;7.950;2022-09-27T08:37:04;96269.09;;;10.72
72054;BMP280;59918;51.280;7.950;2022-09-27T08:39:29;96276.50;;;10.68
72054;BMP280;59918;51.280;7.950;2022-09-27T08:42:13;96282.06;;;10.60
72054;BMP280;59918;51.280;7.950;2022-09-27T08:45:08;96286.00;;;10.47
72054;BMP280;59918;51.280;7.950;2022-09-27T08:47:37;96285.66;;;10.38
72054;BMP280;59918;51.280;7.950;2022-09-27T08:50:20;96294.38;;;10.37
72054;BMP280;59918;51.280;7.950;2022-09-27T08:55:50;96286.84;;;10.31
72054;BMP280;59918;51.280;7.950;2022-09-27T08:58:32;96287.59;;;10.31
72054;BMP280;59918;51.280;7.950;2022-09-27T09:01:01;96293.13;;;10.40
72054;BMP280;59918;51.280;7.950;2022-09-27T09:03:29;96287.03;;;10.46
72054;BMP280;59918;51.280;7.950;2022-09-27T09:38:37;96297.06;;;10.10
72054;BMP280;59918;51.280;7.950;2022-09-27T09:44:09;96288.56;;;10.25
72054;BMP280;59918;51.280;7.950;2022-09-27T09:46:41;96286.91;;;10.36
72054;BMP280;59918;51.280;7.950;2022-09-27T09:49:35;96293.50;;;10.48
72054;BMP280;59918;51.280;7.950;2022-09-27T09:52:12;96288.47;;;10.58
72054;BMP280;59918;51.280;7.950;2022-09-27T09:54:45;96296.22;;;10.63
72054;BMP280;59918;51.280;7.950;2022-09-27T09:57:39;96284.88;;;10.59
72054;BMP280;59918;51.280;7.950;2022-09-27T10:00:13;96296.53;;;10.66
72054;BMP280;59918;51.280;7.950;2022-09-27T10:02:39;96295.16;;;10.80
72054;BMP280;59918;51.280;7.950;2022-09-27T10:05:11;96285.91;;;11.05
72054;BMP280;59918;51.280;7.950;2022-09-27T10:07:38;96283.06;;;11.28
72054;BMP280;59918;51.280;7.950;2022-09-27T10:10:05;96277.38;;;11.47
72054;BMP280;59918;51.280;7.950;2022-09-27T10:12:31;96277.59;;;11.46
72054;BMP280;59918;51.280;7.950;2022-09-27T10:15:01;96270.19;;;11.49
72054;BMP280;59918;51.280;7.950;2022-09-27T10:17:34;96263.22;;;11.50
72054;BMP280;59918;51.280;7.950;2022-09-27T10:20:02;96274.00;;;11.47
72054;BMP280;59918;51.280;7.950;2022-09-27T10:22:34;96272.47;;;11.46
72054;BMP280;59918;51.280;7.950;2022-09-27T10:25:02;96276.88;;;11.50
72054;BMP280;59918;51.280;7.950;2022-09-27T10:27:41;96275.06;;;11.51
72054;BMP280;59918;51.280;7.950;2022-09-27T10:30:26;96275.75;;;11.41
72054;BMP280;59918;51.280;7.950;2022-09-27T10:32:53;96272.03;;;11.59
72054;BMP280;59918;51.280;7.950;2022-09-27T10:35:40;96273.25;;;11.82
72054;BMP280;59918;51.280;7.950;2022-09-27T10:40:40;96268.97;;;11.62
72054;BMP280;59918;51.280;7.950;2022-09-27T10:45:49;96267.25;;;11.72
72054;BMP280;59918;51.280;7.950;2022-09-27T10:48:19;96270.78;;;11.61
72054;BMP280;59918;51.280;7.950;2022-09-27T10:50:59;96273.53;;;11.55
72054;BMP280;59918;51.280;7.950;2022-09-27T10:53:26;96273.72;;;11.43
72054;BMP280;59918;51.280;7.950;2022-09-27T10:55:55;96264.63;;;11.36
72054;BMP280;59918;51.280;7.950;2022-09-27T11:03:24;96269.81;;;10.89
72054;BMP280;59918;51.280;7.950;2022-09-27T11:05:49;96271.31;;;10.85
72054;BMP280;59918;51.280;7.950;2022-09-27T11:10:43;96275.91;;;10.83
72054;BMP280;59918;51.280;7.950;2022-09-27T11:13:14;96272.75;;;11.02
72054;BMP280;59918;51.280;7.950;2022-09-27T11:15:56;96262.44;;;11.23
72054;BMP280;59918;51.280;7.950;2022-09-27T11:32:16;96266.81;;;10.96
72054;BMP280;59918;51.280;7.950;2022-09-27T11:35:17;96272.91;;;10.91
72054;BMP280;59918;51.280;7.950;2022-09-27T11:59:46;96239.41;;;12.05
72054;BMP280;59918;51.280;7.950;2022-09-27T12:10:16;96240.13;;;12.41
72054;BMP280;59918;51.280;7.950;2022-09-27T12:12:44;96240.38;;;12.40
72054;BMP280;59918;51.280;7.950;2022-09-27T12:15:17;96242.03;;;12.15
72054;BMP280;59918;51.280;7.950;2022-09-27T12:17:45;96242.59;;;12.22
72054;BMP280;59918;51.280;7.950;2022-09-27T12:20:30;96228.19;;;12.91
72054;BMP280;59918;51.280;7.950;2022-09-27T12:23:22;96226.97;;;13.68
72054;BMP280;59918;51.280;7.950;2022-09-27T12:25:55;96232.13;;;14.02
72054;BMP280;59918;51.280;7.950;2022-09-27T12:31:02;96231.84;;;13.74
72054;BMP280;59918;51.280;7.950;2022-09-27T12:33:38;96226.41;;;13.12
72054;BMP280;59918;51.280;7.950;2022-09-27T12:36:08;96232.75;;;12.65
72054;BMP280;59918;51.280;7.950;2022-09-27T12:41:31;96234.41;;;11.89
72054;BMP280;59918;51.280;7.950;2022-09-27T12:43:58;96228.09;;;11.70
72054;BMP280;59918;51.280;7.950;2022-09-27T12:46:54;96235.44;;;11.52
72054;BMP280;59918;51.280;7.950;2022-09-27T12:52:09;96237.28;;;11.56
72054;BMP280;59918;51.280;7.950;2022-09-27T13:00:16;96239.66;;;11.36
72054;BMP280;59918;51.280;7.950;2022-09-27T13:13:00;96234.75;;;11.35
72054;BMP280;59918;51.280;7.950;2022-09-27T13:15:27;96235.81;;;11.39
72054;BMP280;59918;51.280;7.950;2022-09-27T13:17:55;96229.72;;;11.45
72054;BMP280;59918;51.280;7.950;2022-09-27T13:31:11;96212.22;;;11.47
72054;BMP280;59918;51.280;7.950;2022-09-27T13:33:53;96227.47;;;11.89
72054;BMP280;59918;51.280;7.950;2022-09-27T13:36:29;96223.84;;;12.41
72054;BMP280;59918;51.280;7.950;2022-09-27T13:41:24;96203.75;;;13.53
72054;BMP280;59918;51.280;7.950;2022-09-27T13:46:25;96195.81;;;16.40
72054;BMP280;59918;51.280;7.950;2022-09-27T13:48:53;96188.94;;;17.09
72054;BMP280;59918;51.280;7.950;2022-09-27T13:52:03;96188.28;;;17.53
72054;BMP280;59918;51.280;7.950;2022-09-27T13:57:00;96200.00;;;16.13
72054;BMP280;59918;51.280;7.950;2022-09-27T13:59:40;96201.81;;;15.28
72054;BMP280;59918;51.280;7.950;2022-09-27T14:04:48;96215.03;;;13.96
72054;BMP280;59918;51.280;7.950;2022-09-27T14:07:17;96214.56;;;13.50
72054;BMP280;59918;51.280;7.950;2022-09-27T14:09:46;96205.28;;;13.14
72054;BMP280;59918;51.280;7.950;2022-09-27T14:12:17;96219.44;;;13.02
72054;BMP280;59918;51.280;7.950;2022-09-27T14:14:44;96224.06;;;12.80
72054;BMP280;59918;51.280;7.950;2022-09-27T14:17:10;96232.19;;;12.58
72054;BMP280;59918;51.280;7.950;2022-09-27T14:19:39;96223.09;;;12.36
72054;BMP280;59918;51.280;7.950;2022-09-27T14:22:11;96229.72;;;12.22
72054;BMP280;59918;51.280;7.950;2022-09-27T14:29:47;96241.56;;;11.46
72054;BMP280;59918;51.280;7.950;2022-09-27T14:32:15;96243.94;;;11.26
72054;BMP280;59918;51.280;7.950;2022-09-27T14:34:41;96238.56;;;11.01
72054;BMP280;59918;51.280;7.950;2022-09-27T14:37:22;96237.72;;;10.96
72054;BMP280;59918;51.280;7.950;2022-09-27T14:39:57;96237.94;;;10.90
72054;BMP280;59918;51.280;7.950;2022-09-27T14:42:25;96249.69;;;10.81
72054;BMP280;59918;51.280;7.950;2022-09-27T14:44:51;96259.66;;;10.77
72054;BMP280;59918;51.280;7.950;2022-09-27T14:47:22;96263.72;;;10.73
72054;BMP280;59918;51.280;7.950;2022-09-27T14:49:52;96260.56;;;10.66
72054;BMP280;59918;51.280;7.950;2022-09-27T14:52:20;96268.50;;;10.65
72054;BMP280;59918;51.280;7.950;2022-09-27T14:54:55;96264.81;;;10.56
72054;BMP280;59918;51.280;7.950;2022-09-27T14:57:21;96262.53;;;10.59
72054;BMP280;59918;51.280;7.950;2022-09-27T14:59:46;96272.75;;;10.76
72054;BMP280;59918;51.280;7.950;2022-09-27T15:02:20;96260.59;;;10.93
72054;BMP280;59918;51.280;7.950;2022-09-27T15:04:47;96259.63;;;10.98
72054;BMP280;59918;51.280;7.950;2022-09-27T15:07:13;96265.31;;;11.00
72054;BMP280;59918;51.280;7.950;2022-09-27T15:09:41;96267.38;;;11.03
72054;BMP280;59918;51.280;7.950;2022-09-27T15:12:09;96271.13;;;11.17
72054;BMP280;59918;51.280;7.950;2022-09-27T15:14:39;96269.84;;;11.20
72054;BMP280;59918;51.280;7.950;2022-09-27T15:17:14;96272.91;;;11.17
72054;BMP280;59918;51.280;7.950;2022-09-27T15:19:55;96275.69;;;11.10
72054;BMP280;59918;51.280;7.950;2022-09-27T15:22:22;96272.06;;;11.06
72054;BMP280;59918;51.280;7.950;2022-09-27T15:25:25;96282.34;;;11.06
72054;BMP280;59918;51.280;7.950;2022-09-27T15:27:52;96290.66;;;10.92
72054;BMP280;59918;51.280;7.950;2022-09-27T15:30:52;96278.34;;;10.94
72054;BMP280;59918;51.280;7.950;2022-09-27T15:33:20;96278.09;;;10.95
72054;BMP280;59918;51.280;7.950;2022-09-27T15:35:54;96280.97;;;10.99
72054;BMP280;59918;51.280;7.950;2022-09-27T15:38:49;96269.91;;;10.98
72054;BMP280;59918;51.280;7.950;2022-09-27T15:41:58;96276.03;;;10.93
72054;BMP280;59918;51.280;7.950;2022-09-27T15:44:37;96284.22;;;10.90
72054;BMP280;59918;51.280;7.950;2022-09-27T15:47:03;96277.03;;;10.92
72054;BMP280;59918;51.280;7.950;2022-09-27T15:49:30;96280.63;;;10.91
72054;BMP280;59918;51.280;7.950;2022-09-27T15:51:57;96283.69;;;10.88
72054;BMP280;59918;51.280;7.950;2022-09-27T15:54:25;96286.25;;;10.88
72054;BMP280;59918;51.280;7.950;2022-09-27T15:56:52;96295.00;;;10.87
72054;BMP280;59918;51.280;7.950;2022-09-27T15:59:21;96301.88;;;10.81
72054;BMP280;59918;51.280;7.950;2022-09-27T16:01:47;96302.31;;;10.78
72054;BMP280;59918;51.280;7.950;2022-09-27T16:04:12;96304.06;;;10.73
72054;BMP280;59918;51.280;7.950;2022-09-27T16:06:40;96301.44;;;10.68
72054;BMP280;59918;51.280;7.950;2022-09-27T16:09:11;96290.38;;;10.67
72054;BMP280;59918;51.280;7.950;2022-09-27T16:11:37;96304.44;;;10.60
72054;BMP280;59918;51.280;7.950;2022-09-27T16:14:02;96293.06;;;10.56
72054;BMP280;59918;51.280;7.950;2022-09-27T16:16:27;96293.78;;;10.52
72054;BMP280;59918;51.280;7.950;2022-09-27T16:18:55;96293.41;;;10.43
72054;BMP280;59918;51.280;7.950;2022-09-27T16:21:20;96294.63;;;10.36
72054;BMP280;59918;51.280;7.950;2022-09-27T16:23:45;96294.78;;;10.29
72054;BMP280;59918;51.280;7.950;2022-09-27T16:26:10;96295.72;;;10.23
72054;BMP280;59918;51.280;7.950;2022-09-27T16:28:37;96299.78;;;10.19
72054;BMP280;59918;51.280;7.950;2022-09-27T16:31:05;96296.91;;;10.16
72054;BMP280;59918;51.280;7.950;2022-09-27T16:33:31;96299.19;;;10.13
72054;BMP280;59918;51.280;7.950;2022-09-27T16:35:57;96296.53;;;10.08
72054;BMP280;59918;51.280;7.950;2022-09-27T16:38:23;96292.88;;;10.04
72054;BMP280;59918;51.280;7.950;2022-09-27T16:40:48;96296.91;;;10.00
72054;BMP280;59918;51.280;7.950;2022-09-27T16:43:13;96298.41;;;9.96
72054;BMP280;59918;51.280;7.950;2022-09-27T16:45:38;96292.41;;;9.90
72054;BMP280;59918;51.280;7.950;2022-09-27T16:48:04;96291.06;;;9.88
72054;BMP280;59918;51.280;7.950;2022-09-27T16:50:29;96294.03;;;9.80
72054;BMP280;59918;51.280;7.950;2022-09-27T16:52:57;96296.28;;;9.77
72054;BMP280;59918;51.280;7.950;2022-09-27T16:55:22;96291.84;;;9.72
72054;BMP280;59918;51.280;7.950;2022-09-27T16:57:49;96293.88;;;9.70
72054;BMP280;59918;51.280;7.950;2022-09-27T17:00:15;96294.09;;;9.69
72054;BMP280;59918;51.280;7.950;2022-09-27T17:02:40;96295.34;;;9.66
72054;BMP280;59918;51.280;7.950;2022-09-27T17:05:05;96295.03;;;9.63
72054;BMP280;59918;51.280;7.950;2022-09-27T17:07:33;96293.28;;;9.63
72054;BMP280;59918;51.280;7.950;2022-09-27T17:09:58;96291.16;;;9.60
72054;BMP280;59918;51.280;7.950;2022-09-27T17:12:23;96295.19;;;9.56
72054;BMP280;59918;51.280;7.950;2022-09-27T17:14:52;96290.06;;;9.56
72054;BMP280;59918;51.280;7.950;2022-09-27T17:17:17;96287.97;;;9.53
72054;BMP280;59918;51.280;7.950;2022-09-27T17:19:42;96292.84;;;9.55
72054;BMP280;59918;51.280;7.950;2022-09-27T17:22:07;96293.94;;;9.59
72054;BMP280;59918;51.280;7.950;2022-09-27T17:24:33;96291.38;;;9.59
72054;BMP280;59918;51.280;7.950;2022-09-27T17:27:01;96288.81;;;9.59
72054;BMP280;59918;51.280;7.950;2022-09-27T17:29:26;96293.28;;;9.63
72054;BMP280;59918;51.280;7.950;2022-09-27T17:31:52;96286.56;;;9.62
72054;BMP280;59918;51.280;7.950;2022-09-27T17:34:17;96290.22;;;9.66
72054;BMP280;59918;51.280;7.950;2022-09-27T17:36:43;96288.19;;;9.68